Date,TemperatureHighF,TemperatureAvgF,TemperatureLowF,DewpointHighF,DewpointAvgF,DewpointLowF,HumidityHigh,HumidityAvg,HumidityLow,PressureMaxIn,PressureMinIn,WindSpeedMaxMPH,WindSpeedAvgMPH,GustSpeedMaxMPH,PrecipitationSumIn
2013-10-1,53.1,41.7,33.1,30.2,25.4,21.9,60,42,25,29.97,29.81,4,1,7,0.00
2013-10-2,50.9,38.5,29.7,32.4,23.0,17.8,76,45,24,30.18,29.97,4,1,8,0.00
2013-10-3,50.5,38.3,28.0,24.8,20.8,17.2,58,39,24,30.19,30.14,5,1,13,0.00
2013-10-4,49.8,39.2,25.7,28.4,22.5,15.0,59,40,28,30.17,30.06,3,0,5,0.00
2013-10-5,51.6,42.2,31.5,31.8,26.3,21.2,57,43,28,30.06,29.95,2,0,3,0.00
2013-10-6,70.0,50.7,42.4,41.8,33.6,30.7,64,44,21,30.21,30.00,2,0,2,0.00
2013-10-7,59.9,49.2,41.4,38.4,35.1,32.3,66,48,28,30.25,30.20,2,0,4,0.00
2013-10-8,54.3,44.8,39.6,42.9,35.8,31.7,80,64,35,32.64,30.12,2,0,2,0.00
2013-10-9,54.0,47.2,39.7,41.8,36.7,32.5,78,60,36,30.12,29.83,1,0,2,0.00
2013-10-10,49.6,45.3,39.2,43.7,38.6,34.6,78,71,57,29.83,29.62,1,0,2,0.00
2013-10-11,44.4,39.9,32.2,40.6,35.9,27.6,82,81,76,29.98,29.74,1,0,2,0.00
2013-10-12,45.0,38.4,29.7,40.3,33.3,25.6,83,76,64,30.00,29.90,2,0,5,0.00
2013-10-13,49.6,40.0,32.4,37.9,30.3,24.7,80,61,35,30.05,29.95,2,0,8,0.00
2013-10-14,57.6,43.6,31.8,45.0,32.2,24.8,79,57,30,30.04,29.95,1,0,2,0.00
2013-10-15,49.1,44.3,38.8,42.9,36.9,31.7,79,68,54,29.95,29.67,2,0,4,0.00
2013-10-16,46.9,42.0,37.9,35.4,31.7,28.1,66,58,38,29.91,29.67,2,0,2,0.00
2013-10-17,51.4,45.0,37.4,40.1,36.5,28.2,79,65,43,29.88,29.81,3,1,6,0.00
2013-10-18,47.7,26.4,38.7,39.6,-20.4,-99.9,66,32,42,30.04,29.84,4,0,6,0.01
2013-10-19,53.6,32.9,34.3,41.5,-4.0,-99.9,79,39,32,30.03,29.92,916,0,916,0.74
2013-10-20,63.5,44.3,45.9,45.3,13.8,-99.9,70,40,31,29.99,29.93,2,0,3,0.00
2013-10-21,60.1,16.2,51.1,44.8,-58.6,-99.9,65,15,33,30.02,29.96,4,0,6,0.00
2013-10-22,68.0,34.5,47.3,45.7,-14.6,-99.9,70,28,25,30.01,29.86,916,0,916,0.00
2013-10-23,59.9,49.6,45.1,48.3,37.8,-99.9,79,64,38,29.93,29.81,2,0,3,0.00
2013-10-24,59.7,34.0,40.1,43.4,-9.9,-99.9,68,35,30,32.52,29.93,2,0,4,0.00
2013-10-25,53.4,29.3,38.5,42.3,-13.9,-99.9,78,41,52,30.07,29.98,916,0,916,0.00
2013-10-26,64.8,54.4,45.7,42.9,39.8,35.2,78,50,31,30.00,29.95,4,0,8,0.00
2013-10-27,60.3,53.6,47.3,42.2,37.8,34.0,63,46,27,29.96,29.75,8,2,11,0.00
2013-10-28,63.5,55.4,47.8,38.9,35.3,31.0,57,38,22,29.82,29.63,8,3,14,0.00
2013-10-29,51.8,44.6,39.6,37.1,28.3,-99.9,62,49,35,29.99,29.78,7,2,11,0.00
2013-10-30,48.0,39.4,28.9,31.3,23.7,-99.9,59,44,27,32.47,29.99,7,1,9,0.00
2013-10-31,48.2,36.2,26.1,33.1,23.0,17.9,73,49,29,30.22,30.06,2,0,4,0.00